Vivian, Louisiana
Current Conditions -  °F | °C
As of 7:53 PM on Wednesday 26 Nov 2014 (Local Time) from KDTN Reporting Station
Clear Clear  
Wind Chill: 54°   Ceiling: Unl
Heat Index: 54°   Visibility: 10mi
Dew Point: 33°   Wind: 7mph
Humidity: 45%   Direction: 310°NW
Pressure: 30.25"   Gusts: NA
Location:  32.87°N, 93.99°W
Report Text: KDTN 270153Z 31006KT 10SM CLR 12/01 A3025 RMK AO2 SLP242 T01220006
Loading
Personal Weather Stations






























Interactive Weather Map New forecast layout! Learn more

10-Day Weather Forecast

Advertisements
Track Severe Weather on mobile